createdAt,value
2022-08-26T00:04:55.592Z,6.28
2022-08-26T00:09:57.117Z,6.10
2022-08-26T00:14:59.325Z,6.20
2022-08-26T00:20:02.935Z,6.55
2022-08-26T00:25:05.420Z,6.20
2022-08-26T00:30:12.249Z,6.38
2022-08-26T00:35:15.341Z,7.28
2022-08-26T00:40:22.098Z,7.28
2022-08-26T00:45:24.261Z,6.93
2022-08-26T00:50:31.488Z,6.72
2022-08-26T00:55:39.467Z,6.38
2022-08-26T01:00:41.691Z,6.18
2022-08-26T01:05:47.098Z,6.07
2022-08-26T01:10:48.776Z,6.22
2022-08-26T01:15:56.209Z,6.85
2022-08-26T01:21:36.292Z,6.38
2022-08-26T01:26:44.619Z,6.90
2022-08-26T01:31:51.111Z,7.10
2022-08-26T01:37:07.962Z,6.43
2022-08-26T01:42:15.244Z,7.00
2022-08-26T01:47:18.328Z,7.10
2022-08-26T01:52:27.992Z,7.85
2022-08-26T01:57:30.904Z,7.53
2022-08-26T02:02:32.421Z,7.38
2022-08-26T02:07:34.389Z,7.75
2022-08-26T02:12:37.029Z,7.72
2022-08-26T02:17:45.599Z,6.93
2022-08-26T02:22:47.724Z,7.85
2022-08-26T02:27:49.716Z,7.40
2022-08-26T02:32:51.861Z,8.85
2022-08-26T02:37:54.009Z,8.50
2022-08-26T02:42:55.953Z,7.80
2022-08-26T02:47:59.647Z,7.75
2022-08-26T02:53:01.609Z,8.00
2022-08-26T02:58:04.304Z,8.30
2022-08-26T03:03:06.168Z,8.07
2022-08-26T03:08:08.743Z,8.90
2022-08-26T03:13:11.153Z,8.25
2022-08-26T03:18:13.215Z,8.82
2022-08-26T03:23:14.771Z,8.82
2022-08-26T03:28:16.389Z,10.45
2022-08-26T03:33:21.405Z,8.80
2022-08-26T03:38:25.050Z,8.70
2022-08-26T03:43:27.062Z,8.63
2022-08-26T03:48:28.573Z,9.20
2022-08-26T03:53:31.829Z,9.73
2022-08-26T03:58:33.613Z,8.93
2022-08-26T04:03:53.524Z,9.02
2022-08-26T04:08:56.845Z,9.30
2022-08-26T04:14:00.623Z,9.88
2022-08-26T04:19:02.263Z,8.75
2022-08-26T04:24:06.389Z,8.70
2022-08-26T04:29:13.114Z,9.45
2022-08-26T04:34:15.018Z,9.45
2022-08-26T04:39:16.826Z,9.32
2022-08-26T04:44:21.059Z,10.15
2022-08-26T04:49:23.248Z,9.38
2022-08-26T04:54:27.671Z,9.85
2022-08-26T04:59:30.027Z,9.23
2022-08-26T05:04:31.524Z,10.98
2022-08-26T05:09:33.267Z,9.07
2022-08-26T05:14:35.201Z,9.25
2022-08-26T05:19:37.323Z,9.43
2022-08-26T05:24:47.186Z,9.23
2022-08-26T05:29:48.773Z,10.35
2022-08-26T05:34:57.039Z,10.32
2022-08-26T05:40:03.779Z,11.90
2022-08-26T05:45:06.006Z,11.25
2022-08-26T05:50:08.606Z,10.60
2022-08-26T05:55:10.138Z,11.05
2022-08-26T06:00:15.396Z,10.85
2022-08-26T06:05:17.058Z,11.88
2022-08-26T06:10:32.115Z,12.35
2022-08-26T06:15:35.422Z,12.57
2022-08-26T06:20:37.216Z,12.73
2022-08-26T06:25:39.468Z,13.13
2022-08-26T06:30:42.522Z,12.77
2022-08-26T06:35:45.547Z,12.02
2022-08-26T06:40:50.649Z,12.60
2022-08-26T06:45:52.560Z,11.48
2022-08-26T06:51:06.947Z,11.38
2022-08-26T06:56:10.670Z,12.07
2022-08-26T07:01:37.356Z,12.48
2022-08-26T07:06:47.032Z,11.35
2022-08-26T07:11:49.269Z,12.00
2022-08-26T07:16:51.136Z,12.80
2022-08-26T07:21:52.673Z,11.75
2022-08-26T07:27:08.584Z,11.60
2022-08-26T07:32:13.197Z,12.20
2022-08-26T07:37:17.504Z,11.88
2022-08-26T07:42:20.340Z,11.52
2022-08-26T07:47:24.828Z,12.90
2022-08-26T07:52:29.796Z,11.95
2022-08-26T07:57:31.419Z,11.15
2022-08-26T08:02:33.192Z,10.50
2022-08-26T08:07:38.628Z,11.50
2022-08-26T08:12:47.988Z,10.48
2022-08-26T08:17:51.691Z,9.73
2022-08-26T08:22:54.043Z,10.60
2022-08-26T08:27:55.531Z,10.43
2022-08-26T08:32:58.635Z,10.55
2022-08-26T08:38:04.288Z,9.68
2022-08-26T08:43:09.706Z,9.95
2022-08-26T08:53:43.152Z,9.38
2022-08-26T08:59:05.021Z,9.50
2022-08-26T09:04:17.484Z,9.98
2022-08-26T09:09:29.706Z,9.98
2022-08-26T09:14:31.753Z,8.60
2022-08-26T09:19:44.781Z,10.18
2022-08-26T09:24:49.229Z,9.15
2022-08-26T09:29:50.791Z,10.25
2022-08-26T09:35:06.167Z,10.63
2022-08-26T09:40:29.016Z,11.02
2022-08-26T09:45:30.777Z,12.63
2022-08-26T09:50:38.599Z,13.70
2022-08-26T09:55:45.297Z,12.10
2022-08-26T10:00:56.418Z,12.50
2022-08-26T10:06:17.694Z,11.65
2022-08-26T10:11:39.655Z,12.10
2022-08-26T10:16:51.426Z,11.55
2022-08-26T10:22:05.798Z,11.95
2022-08-26T10:27:33.008Z,13.10
2022-08-26T10:32:42.627Z,11.88
2022-08-26T10:37:58.421Z,13.07
2022-08-26T10:43:12.468Z,11.60
2022-08-26T10:48:27.777Z,12.38
2022-08-26T10:53:51.573Z,13.52
2022-08-26T10:59:24.226Z,13.15
2022-08-26T11:04:48.544Z,13.50
2022-08-26T11:09:50.463Z,14.55
2022-08-26T11:14:58.760Z,12.63
2022-08-26T11:20:08.991Z,12.98
2022-08-26T11:25:14.032Z,12.50
2022-08-26T11:30:15.725Z,12.98
2022-08-26T11:35:20.428Z,12.70
2022-08-26T11:40:26.604Z,12.70
2022-08-26T11:45:32.721Z,12.80
2022-08-26T11:50:34.283Z,12.93
2022-08-26T11:55:43.273Z,11.55
2022-08-26T12:01:01.133Z,10.88
2022-08-26T12:06:32.802Z,10.27
2022-08-26T12:11:37.356Z,9.23
2022-08-26T12:16:40.241Z,9.95
2022-08-26T12:21:42.623Z,9.20
2022-08-26T12:26:44.761Z,9.65
2022-08-26T12:31:46.755Z,9.30
2022-08-26T12:36:53.911Z,10.07
2022-08-26T12:41:57.197Z,9.45
2022-08-26T12:47:41.944Z,9.45
2022-08-26T12:53:03.000Z,9.75
2022-08-26T12:58:16.368Z,10.98
2022-08-26T13:03:38.935Z,10.10
2022-08-26T13:08:43.059Z,10.05
2022-08-26T13:13:45.673Z,10.45
2022-08-26T13:18:51.517Z,11.07
2022-08-26T13:23:54.046Z,10.85
2022-08-26T13:29:01.346Z,11.30
2022-08-26T13:34:04.422Z,10.55
2022-08-26T13:39:06.545Z,11.35
2022-08-26T13:44:08.164Z,10.07
2022-08-26T13:49:10.053Z,9.02
2022-08-26T13:54:11.561Z,9.13
2022-08-26T13:59:13.088Z,9.43
2022-08-26T14:04:14.658Z,8.05
2022-08-26T14:09:16.202Z,8.68
2022-08-26T14:14:17.722Z,8.48
2022-08-26T14:19:19.467Z,6.75
2022-08-26T14:24:26.128Z,8.35
2022-08-26T14:29:27.677Z,7.60
2022-08-26T14:34:29.267Z,8.00
2022-08-26T14:39:30.785Z,7.55
2022-08-26T14:44:33.439Z,7.63
2022-08-26T14:49:35.025Z,6.32
2022-08-26T14:54:37.710Z,6.03
2022-08-26T14:59:42.075Z,6.53
2022-08-26T15:04:43.659Z,5.22
2022-08-26T15:09:45.163Z,5.18
2022-08-26T15:14:46.798Z,4.65
2022-08-26T15:19:48.410Z,4.63
2022-08-26T15:24:53.590Z,5.15
2022-08-26T15:29:55.510Z,4.80
2022-08-26T15:34:57.021Z,4.85
2022-08-26T15:39:58.575Z,4.60
2022-08-26T15:45:00.378Z,4.25
2022-08-26T15:50:01.982Z,4.30
2022-08-26T16:00:10.802Z,3.95
2022-08-26T16:05:14.997Z,3.42
2022-08-26T16:10:18.443Z,3.47
2022-08-26T16:15:21.745Z,3.58
2022-08-26T16:20:23.264Z,3.30
2022-08-26T16:25:25.486Z,3.55
2022-08-26T16:30:27.423Z,2.88
2022-08-26T16:35:28.987Z,4.50
2022-08-26T16:40:31.263Z,3.30
2022-08-26T16:45:33.007Z,2.75
2022-08-26T16:50:35.498Z,2.97
2022-08-26T16:55:37.396Z,3.00
2022-08-26T17:00:39.525Z,2.42
2022-08-26T17:05:41.010Z,2.72
2022-08-26T17:15:54.020Z,2.58
2022-08-26T17:21:05.564Z,2.97
2022-08-26T17:26:07.925Z,2.38
2022-08-26T17:31:11.647Z,2.63
2022-08-26T17:36:13.769Z,2.13
2022-08-26T17:41:16.460Z,2.25
2022-08-26T17:46:18.054Z,2.40
2022-08-26T17:51:20.663Z,2.08
2022-08-26T17:56:25.897Z,2.53
2022-08-26T18:01:27.929Z,2.30
2022-08-26T18:06:30.529Z,2.35
2022-08-26T18:11:32.296Z,2.53
2022-08-26T18:16:38.168Z,2.47
2022-08-26T18:21:39.894Z,2.53
2022-08-26T18:26:48.298Z,2.20
2022-08-26T18:31:49.726Z,3.43
2022-08-26T18:36:51.313Z,3.00
2022-08-26T18:41:53.232Z,2.70
2022-08-26T18:46:54.831Z,2.60
2022-08-26T18:51:56.443Z,3.35
2022-08-26T18:56:58.400Z,2.60
2022-08-26T19:02:02.353Z,3.17
2022-08-26T19:07:05.346Z,3.67
2022-08-26T19:12:07.001Z,3.10
2022-08-26T19:17:09.313Z,3.05
2022-08-26T19:22:11.129Z,2.67
2022-08-26T19:27:14.845Z,5.03
2022-08-26T19:32:17.525Z,2.78
2022-08-26T19:37:20.164Z,2.83
2022-08-26T19:42:21.963Z,2.50
2022-08-26T19:47:23.527Z,2.83
2022-08-26T19:52:29.922Z,3.65
2022-08-26T19:57:31.759Z,3.20
2022-08-26T20:02:34.025Z,2.97
2022-08-26T20:07:36.381Z,3.08
2022-08-26T20:12:37.924Z,2.75
2022-08-26T20:17:40.619Z,3.45
2022-08-26T20:22:42.399Z,2.67
2022-08-26T20:27:44.294Z,2.63
2022-08-26T20:32:45.868Z,2.72
2022-08-26T20:37:47.636Z,3.33
2022-08-26T20:42:49.131Z,2.60
2022-08-26T20:47:50.795Z,2.72
2022-08-26T20:52:53.504Z,2.97
2022-08-26T20:57:55.317Z,2.88
2022-08-26T21:02:58.867Z,1.95
2022-08-26T21:08:00.423Z,1.90
2022-08-26T21:13:03.117Z,2.50
2022-08-26T21:18:05.284Z,2.08
2022-08-26T21:23:06.861Z,2.20
2022-08-26T21:28:08.701Z,2.10
2022-08-26T21:33:10.412Z,2.20
2022-08-26T21:38:12.001Z,1.80
2022-08-26T21:43:35.052Z,1.83
2022-08-26T21:48:35.084Z,1.70
2022-08-26T21:53:36.949Z,1.88
2022-08-26T21:58:38.831Z,1.80
2022-08-26T22:03:46.839Z,2.42
2022-08-26T22:08:49.534Z,1.88
2022-08-26T22:13:51.432Z,1.98
2022-08-26T22:18:53.252Z,2.28
2022-08-26T22:23:58.140Z,1.70
2022-08-26T22:29:01.375Z,1.50
2022-08-26T22:34:06.361Z,1.88
2022-08-26T22:39:07.875Z,1.63
2022-08-26T22:44:12.529Z,1.50
2022-08-26T22:49:16.253Z,1.55
2022-08-26T22:54:17.916Z,1.88
2022-08-26T22:59:19.471Z,1.77
2022-08-26T23:04:21.127Z,1.30
2022-08-26T23:09:22.789Z,1.65
2022-08-26T23:14:25.745Z,1.23
2022-08-26T23:19:27.296Z,1.38
2022-08-26T23:24:29.149Z,1.40
2022-08-26T23:29:30.862Z,0.95
2022-08-26T23:34:50.984Z,1.58
2022-08-26T23:39:53.224Z,1.10
2022-08-26T23:44:54.742Z,2.33
2022-08-26T23:49:56.287Z,1.50
2022-08-26T23:54:58.005Z,1.08
2022-08-26T23:59:59.893Z,2.55
